sensor_id;sensor_type;location;lat;lon;timestamp;P1;durP1;ratioP1;P2;durP2;ratioP2
4290;SDS011;2159;50.906;7.152;2023-06-26T00:02:21;7.63;;;6.90;;
4290;SDS011;2159;50.906;7.152;2023-06-26T00:04:48;7.10;;;6.40;;
4290;SDS011;2159;50.906;7.152;2023-06-26T00:07:22;8.93;;;6.60;;
4290;SDS011;2159;50.906;7.152;2023-06-26T00:09:50;7.20;;;6.60;;
4290;SDS011;2159;50.906;7.152;2023-06-26T00:12:20;6.83;;;6.23;;
4290;SDS011;2159;50.906;7.152;2023-06-26T00:14:47;6.50;;;6.00;;
4290;SDS011;2159;50.906;7.152;2023-06-26T00:17:14;9.53;;;6.80;;
4290;SDS011;2159;50.906;7.152;2023-06-26T00:19:42;7.10;;;6.50;;
4290;SDS011;2159;50.906;7.152;2023-06-26T00:22:11;6.93;;;6.33;;
4290;SDS011;2159;50.906;7.152;2023-06-26T00:24:38;6.90;;;6.30;;
4290;SDS011;2159;50.906;7.152;2023-06-26T00:27:06;7.30;;;6.60;;
4290;SDS011;2159;50.906;7.152;2023-06-26T00:29:35;7.60;;;6.90;;
4290;SDS011;2159;50.906;7.152;2023-06-26T00:32:04;6.63;;;6.13;;
4290;SDS011;2159;50.906;7.152;2023-06-26T00:34:32;6.67;;;6.07;;
4290;SDS011;2159;50.906;7.152;2023-06-26T00:36:59;6.77;;;6.17;;
4290;SDS011;2159;50.906;7.152;2023-06-26T00:39:27;6.90;;;6.30;;
4290;SDS011;2159;50.906;7.152;2023-06-26T00:41:54;7.20;;;6.47;;
4290;SDS011;2159;50.906;7.152;2023-06-26T00:44:22;7.17;;;6.57;;
4290;SDS011;2159;50.906;7.152;2023-06-26T00:46:51;7.20;;;6.50;;
4290;SDS011;2159;50.906;7.152;2023-06-26T00:49:18;6.90;;;6.30;;
4290;SDS011;2159;50.906;7.152;2023-06-26T00:51:46;12.87;;;6.80;;
4290;SDS011;2159;50.906;7.152;2023-06-26T00:54:13;6.77;;;6.20;;
4290;SDS011;2159;50.906;7.152;2023-06-26T00:56:46;7.10;;;6.40;;
4290;SDS011;2159;50.906;7.152;2023-06-26T00:59:14;8.70;;;6.40;;
4290;SDS011;2159;50.906;7.152;2023-06-26T01:01:42;7.57;;;6.57;;
4290;SDS011;2159;50.906;7.152;2023-06-26T01:04:10;7.60;;;6.83;;
4290;SDS011;2159;50.906;7.152;2023-06-26T01:06:44;7.80;;;7.10;;
4290;SDS011;2159;50.906;7.152;2023-06-26T01:09:18;7.23;;;6.53;;
4290;SDS011;2159;50.906;7.152;2023-06-26T01:11:46;8.70;;;6.13;;
4290;SDS011;2159;50.906;7.152;2023-06-26T01:14:14;7.60;;;5.97;;
4290;SDS011;2159;50.906;7.152;2023-06-26T01:16:41;6.83;;;6.23;;
4290;SDS011;2159;50.906;7.152;2023-06-26T01:19:18;8.83;;;6.00;;
4290;SDS011;2159;50.906;7.152;2023-06-26T01:21:51;7.33;;;6.40;;
4290;SDS011;2159;50.906;7.152;2023-06-26T01:24:24;6.50;;;5.87;;
4290;SDS011;2159;50.906;7.152;2023-06-26T01:26:55;7.53;;;6.63;;
4290;SDS011;2159;50.906;7.152;2023-06-26T01:29:23;7.10;;;6.40;;
4290;SDS011;2159;50.906;7.152;2023-06-26T01:31:51;9.03;;;6.60;;
4290;SDS011;2159;50.906;7.152;2023-06-26T01:34:18;7.40;;;6.70;;
4290;SDS011;2159;50.906;7.152;2023-06-26T01:36:46;7.70;;;6.37;;
4290;SDS011;2159;50.906;7.152;2023-06-26T01:39:14;6.10;;;5.60;;
4290;SDS011;2159;50.906;7.152;2023-06-26T01:41:42;6.73;;;6.13;;
4290;SDS011;2159;50.906;7.152;2023-06-26T01:44:17;7.00;;;6.40;;
4290;SDS011;2159;50.906;7.152;2023-06-26T01:46:49;10.27;;;5.87;;
4290;SDS011;2159;50.906;7.152;2023-06-26T01:49:21;6.87;;;6.27;;
4290;SDS011;2159;50.906;7.152;2023-06-26T01:51:54;7.13;;;6.40;;
4290;SDS011;2159;50.906;7.152;2023-06-26T01:54:23;7.60;;;6.23;;
4290;SDS011;2159;50.906;7.152;2023-06-26T01:56:52;7.87;;;7.10;;
4290;SDS011;2159;50.906;7.152;2023-06-26T01:59:21;7.53;;;6.57;;
4290;SDS011;2159;50.906;7.152;2023-06-26T02:01:49;12.27;;;6.63;;
4290;SDS011;2159;50.906;7.152;2023-06-26T02:04:17;7.60;;;6.90;;
4290;SDS011;2159;50.906;7.152;2023-06-26T02:06:44;8.80;;;6.80;;
4290;SDS011;2159;50.906;7.152;2023-06-26T02:09:12;7.40;;;6.67;;
4290;SDS011;2159;50.906;7.152;2023-06-26T02:11:39;6.40;;;5.90;;
4290;SDS011;2159;50.906;7.152;2023-06-26T02:14:07;6.77;;;6.17;;
4290;SDS011;2159;50.906;7.152;2023-06-26T02:16:36;6.70;;;6.20;;
4290;SDS011;2159;50.906;7.152;2023-06-26T02:19:04;9.17;;;6.80;;
4290;SDS011;2159;50.906;7.152;2023-06-26T02:21:32;7.50;;;6.73;;
4290;SDS011;2159;50.906;7.152;2023-06-26T02:23:59;7.00;;;6.40;;
4290;SDS011;2159;50.906;7.152;2023-06-26T02:26:27;7.43;;;6.63;;
4290;SDS011;2159;50.906;7.152;2023-06-26T02:28:54;7.50;;;6.70;;
4290;SDS011;2159;50.906;7.152;2023-06-26T02:31:22;7.30;;;6.60;;
4290;SDS011;2159;50.906;7.152;2023-06-26T02:33:51;6.97;;;6.23;;
4290;SDS011;2159;50.906;7.152;2023-06-26T02:36:18;7.87;;;7.17;;
4290;SDS011;2159;50.906;7.152;2023-06-26T02:38:45;6.80;;;6.10;;
4290;SDS011;2159;50.906;7.152;2023-06-26T02:41:13;7.23;;;6.53;;
4290;SDS011;2159;50.906;7.152;2023-06-26T02:43:40;7.13;;;6.53;;
4290;SDS011;2159;50.906;7.152;2023-06-26T02:46:08;7.17;;;6.43;;
4290;SDS011;2159;50.906;7.152;2023-06-26T02:48:35;8.40;;;6.53;;
4290;SDS011;2159;50.906;7.152;2023-06-26T02:51:04;7.07;;;6.37;;
4290;SDS011;2159;50.906;7.152;2023-06-26T02:53:32;7.20;;;6.50;;
4290;SDS011;2159;50.906;7.152;2023-06-26T02:55:59;7.00;;;6.30;;
4290;SDS011;2159;50.906;7.152;2023-06-26T02:58:27;7.50;;;6.70;;
4290;SDS011;2159;50.906;7.152;2023-06-26T03:00:54;7.80;;;7.07;;
4290;SDS011;2159;50.906;7.152;2023-06-26T03:03:22;11.30;;;6.63;;
4290;SDS011;2159;50.906;7.152;2023-06-26T03:05:50;7.13;;;6.53;;
4290;SDS011;2159;50.906;7.152;2023-06-26T03:08:19;7.47;;;6.73;;
4290;SDS011;2159;50.906;7.152;2023-06-26T03:10:46;7.50;;;6.70;;
4290;SDS011;2159;50.906;7.152;2023-06-26T03:13:14;7.33;;;6.63;;
4290;SDS011;2159;50.906;7.152;2023-06-26T03:15:41;7.33;;;6.53;;
4290;SDS011;2159;50.906;7.152;2023-06-26T03:18:09;7.87;;;7.00;;
4290;SDS011;2159;50.906;7.152;2023-06-26T03:20:36;7.20;;;6.50;;
4290;SDS011;2159;50.906;7.152;2023-06-26T03:23:04;7.40;;;6.70;;
4290;SDS011;2159;50.906;7.152;2023-06-26T03:25:34;6.97;;;6.27;;
4290;SDS011;2159;50.906;7.152;2023-06-26T03:28:01;7.37;;;6.67;;
4290;SDS011;2159;50.906;7.152;2023-06-26T03:30:29;8.50;;;6.53;;
4290;SDS011;2159;50.906;7.152;2023-06-26T03:32:56;8.07;;;7.20;;
4290;SDS011;2159;50.906;7.152;2023-06-26T03:35:24;7.70;;;6.90;;
4290;SDS011;2159;50.906;7.152;2023-06-26T03:37:51;8.67;;;6.90;;
4290;SDS011;2159;50.906;7.152;2023-06-26T03:40:19;7.50;;;6.80;;
4290;SDS011;2159;50.906;7.152;2023-06-26T03:42:51;7.70;;;6.90;;
4290;SDS011;2159;50.906;7.152;2023-06-26T03:45:18;7.77;;;6.97;;
4290;SDS011;2159;50.906;7.152;2023-06-26T03:47:46;9.10;;;6.80;;
4290;SDS011;2159;50.906;7.152;2023-06-26T03:50:15;7.83;;;7.00;;
4290;SDS011;2159;50.906;7.152;2023-06-26T03:52:43;7.83;;;7.00;;
4290;SDS011;2159;50.906;7.152;2023-06-26T03:55:10;7.30;;;6.70;;
4290;SDS011;2159;50.906;7.152;2023-06-26T03:57:38;7.23;;;6.43;;
4290;SDS011;2159;50.906;7.152;2023-06-26T04:00:08;6.93;;;6.33;;
4290;SDS011;2159;50.906;7.152;2023-06-26T04:02:39;7.53;;;6.17;;
4290;SDS011;2159;50.906;7.152;2023-06-26T04:05:06;7.27;;;6.57;;
4290;SDS011;2159;50.906;7.152;2023-06-26T04:07:34;7.03;;;6.43;;
4290;SDS011;2159;50.906;7.152;2023-06-26T04:10:02;7.03;;;6.37;;
4290;SDS011;2159;50.906;7.152;2023-06-26T04:12:29;7.10;;;6.40;;
4290;SDS011;2159;50.906;7.152;2023-06-26T04:14:57;7.20;;;6.20;;
4290;SDS011;2159;50.906;7.152;2023-06-26T04:17:25;7.83;;;6.73;;
4290;SDS011;2159;50.906;7.152;2023-06-26T04:19:53;7.67;;;6.73;;
4290;SDS011;2159;50.906;7.152;2023-06-26T04:22:20;7.37;;;6.40;;
4290;SDS011;2159;50.906;7.152;2023-06-26T04:24:48;7.03;;;6.43;;
4290;SDS011;2159;50.906;7.152;2023-06-26T04:27:15;8.83;;;6.73;;
4290;SDS011;2159;50.906;7.152;2023-06-26T04:29:43;8.33;;;6.70;;
4290;SDS011;2159;50.906;7.152;2023-06-26T04:32:10;8.10;;;6.50;;
4290;SDS011;2159;50.906;7.152;2023-06-26T04:34:39;7.90;;;6.67;;
4290;SDS011;2159;50.906;7.152;2023-06-26T04:37:10;7.30;;;6.60;;
4290;SDS011;2159;50.906;7.152;2023-06-26T04:39:37;6.67;;;6.07;;
4290;SDS011;2159;50.906;7.152;2023-06-26T04:42:05;7.37;;;6.57;;
4290;SDS011;2159;50.906;7.152;2023-06-26T04:44:33;7.00;;;6.30;;
4290;SDS011;2159;50.906;7.152;2023-06-26T04:47:00;8.03;;;7.23;;
4290;SDS011;2159;50.906;7.152;2023-06-26T04:49:29;7.97;;;7.27;;
4290;SDS011;2159;50.906;7.152;2023-06-26T04:51:57;8.13;;;6.87;;
4290;SDS011;2159;50.906;7.152;2023-06-26T04:54:26;7.93;;;7.13;;
4290;SDS011;2159;50.906;7.152;2023-06-26T04:56:54;7.13;;;6.53;;
4290;SDS011;2159;50.906;7.152;2023-06-26T04:59:21;8.57;;;6.50;;
4290;SDS011;2159;50.906;7.152;2023-06-26T05:01:49;6.80;;;6.10;;
4290;SDS011;2159;50.906;7.152;2023-06-26T05:04:16;6.80;;;5.90;;
4290;SDS011;2159;50.906;7.152;2023-06-26T05:06:44;6.97;;;5.60;;
4290;SDS011;2159;50.906;7.152;2023-06-26T05:09:13;6.80;;;4.93;;
4290;SDS011;2159;50.906;7.152;2023-06-26T05:11:40;10.37;;;5.77;;
4290;SDS011;2159;50.906;7.152;2023-06-26T05:14:08;5.90;;;4.83;;
4290;SDS011;2159;50.906;7.152;2023-06-26T05:16:35;8.20;;;5.17;;
4290;SDS011;2159;50.906;7.152;2023-06-26T05:19:03;5.57;;;5.07;;
4290;SDS011;2159;50.906;7.152;2023-06-26T05:21:31;5.97;;;5.30;;
4290;SDS011;2159;50.906;7.152;2023-06-26T05:23:58;6.77;;;5.30;;
4290;SDS011;2159;50.906;7.152;2023-06-26T05:26:27;5.10;;;4.60;;
4290;SDS011;2159;50.906;7.152;2023-06-26T05:28:55;5.70;;;5.20;;
4290;SDS011;2159;50.906;7.152;2023-06-26T05:31:24;5.63;;;5.03;;
4290;SDS011;2159;50.906;7.152;2023-06-26T05:33:51;5.33;;;4.83;;
4290;SDS011;2159;50.906;7.152;2023-06-26T05:36:20;8.13;;;4.83;;
4290;SDS011;2159;50.906;7.152;2023-06-26T05:38:48;5.37;;;4.83;;
4290;SDS011;2159;50.906;7.152;2023-06-26T05:41:17;5.23;;;4.73;;
4290;SDS011;2159;50.906;7.152;2023-06-26T05:43:46;5.87;;;4.77;;
4290;SDS011;2159;50.906;7.152;2023-06-26T05:46:13;15.60;;;5.10;;
4290;SDS011;2159;50.906;7.152;2023-06-26T05:48:41;7.73;;;5.00;;
4290;SDS011;2159;50.906;7.152;2023-06-26T05:51:08;6.33;;;4.63;;
4290;SDS011;2159;50.906;7.152;2023-06-26T05:53:36;8.77;;;5.10;;
4290;SDS011;2159;50.906;7.152;2023-06-26T05:56:04;4.83;;;4.33;;
4290;SDS011;2159;50.906;7.152;2023-06-26T05:58:31;4.93;;;4.43;;
4290;SDS011;2159;50.906;7.152;2023-06-26T06:01:01;5.20;;;4.40;;
4290;SDS011;2159;50.906;7.152;2023-06-26T06:03:28;5.50;;;4.60;;
4290;SDS011;2159;50.906;7.152;2023-06-26T06:05:56;6.50;;;4.70;;
4290;SDS011;2159;50.906;7.152;2023-06-26T06:08:23;7.13;;;5.00;;
4290;SDS011;2159;50.906;7.152;2023-06-26T06:10:51;6.27;;;4.33;;
4290;SDS011;2159;50.906;7.152;2023-06-26T06:13:18;4.40;;;4.00;;
4290;SDS011;2159;50.906;7.152;2023-06-26T06:15:46;4.87;;;4.17;;
4290;SDS011;2159;50.906;7.152;2023-06-26T06:18:14;5.13;;;4.53;;
4290;SDS011;2159;50.906;7.152;2023-06-26T06:20:42;6.10;;;4.77;;
4290;SDS011;2159;50.906;7.152;2023-06-26T06:23:09;12.23;;;4.60;;
4290;SDS011;2159;50.906;7.152;2023-06-26T06:25:37;6.30;;;4.57;;
4290;SDS011;2159;50.906;7.152;2023-06-26T06:28:04;6.73;;;4.67;;
4290;SDS011;2159;50.906;7.152;2023-06-26T06:30:31;5.20;;;4.40;;
4290;SDS011;2159;50.906;7.152;2023-06-26T06:33:02;4.80;;;4.10;;
4290;SDS011;2159;50.906;7.152;2023-06-26T06:35:31;6.90;;;4.30;;
4290;SDS011;2159;50.906;7.152;2023-06-26T06:37:58;5.43;;;4.60;;
4290;SDS011;2159;50.906;7.152;2023-06-26T06:40:25;10.93;;;4.23;;
4290;SDS011;2159;50.906;7.152;2023-06-26T06:42:53;5.40;;;4.53;;
4290;SDS011;2159;50.906;7.152;2023-06-26T06:45:20;10.10;;;4.60;;
4290;SDS011;2159;50.906;7.152;2023-06-26T06:47:48;5.87;;;4.63;;
4290;SDS011;2159;50.906;7.152;2023-06-26T06:50:15;7.03;;;4.70;;
4290;SDS011;2159;50.906;7.152;2023-06-26T06:52:46;4.90;;;4.23;;
4290;SDS011;2159;50.906;7.152;2023-06-26T06:55:13;6.03;;;4.40;;
4290;SDS011;2159;50.906;7.152;2023-06-26T06:57:40;6.97;;;4.23;;
4290;SDS011;2159;50.906;7.152;2023-06-26T07:00:09;6.67;;;4.33;;
4290;SDS011;2159;50.906;7.152;2023-06-26T07:02:37;9.73;;;4.83;;
4290;SDS011;2159;50.906;7.152;2023-06-26T07:05:05;7.90;;;4.30;;
4290;SDS011;2159;50.906;7.152;2023-06-26T07:07:33;9.43;;;4.13;;
4290;SDS011;2159;50.906;7.152;2023-06-26T07:10:02;7.23;;;4.70;;
4290;SDS011;2159;50.906;7.152;2023-06-26T07:12:30;6.47;;;4.10;;
4290;SDS011;2159;50.906;7.152;2023-06-26T07:14:58;6.20;;;4.50;;
4290;SDS011;2159;50.906;7.152;2023-06-26T07:17:25;8.73;;;3.80;;
4290;SDS011;2159;50.906;7.152;2023-06-26T07:19:53;12.53;;;4.80;;
4290;SDS011;2159;50.906;7.152;2023-06-26T07:22:20;8.60;;;4.60;;
4290;SDS011;2159;50.906;7.152;2023-06-26T07:24:48;7.20;;;4.27;;
4290;SDS011;2159;50.906;7.152;2023-06-26T07:27:17;5.43;;;4.30;;
4290;SDS011;2159;50.906;7.152;2023-06-26T07:29:45;6.33;;;4.47;;
4290;SDS011;2159;50.906;7.152;2023-06-26T07:32:12;4.50;;;4.10;;
4290;SDS011;2159;50.906;7.152;2023-06-26T07:34:41;6.93;;;4.33;;
4290;SDS011;2159;50.906;7.152;2023-06-26T07:37:08;6.67;;;3.90;;
4290;SDS011;2159;50.906;7.152;2023-06-26T07:39:36;6.13;;;4.10;;
4290;SDS011;2159;50.906;7.152;2023-06-26T07:42:03;12.13;;;3.90;;
4290;SDS011;2159;50.906;7.152;2023-06-26T07:44:32;9.40;;;4.33;;
4290;SDS011;2159;50.906;7.152;2023-06-26T07:47:00;7.27;;;4.37;;
4290;SDS011;2159;50.906;7.152;2023-06-26T07:49:28;9.77;;;4.70;;
4290;SDS011;2159;50.906;7.152;2023-06-26T07:51:55;6.90;;;4.13;;
4290;SDS011;2159;50.906;7.152;2023-06-26T07:54:23;9.30;;;3.90;;
4290;SDS011;2159;50.906;7.152;2023-06-26T07:56:54;6.43;;;4.53;;
4290;SDS011;2159;50.906;7.152;2023-06-26T07:59:22;6.83;;;4.10;;
4290;SDS011;2159;50.906;7.152;2023-06-26T08:01:52;10.23;;;4.70;;
4290;SDS011;2159;50.906;7.152;2023-06-26T08:04:20;9.10;;;4.67;;
4290;SDS011;2159;50.906;7.152;2023-06-26T08:06:48;9.47;;;4.83;;
4290;SDS011;2159;50.906;7.152;2023-06-26T08:09:16;6.20;;;4.40;;
4290;SDS011;2159;50.906;7.152;2023-06-26T08:11:43;10.27;;;4.83;;
4290;SDS011;2159;50.906;7.152;2023-06-26T08:14:11;6.30;;;4.30;;
4290;SDS011;2159;50.906;7.152;2023-06-26T08:16:39;4.60;;;4.20;;
4290;SDS011;2159;50.906;7.152;2023-06-26T08:19:08;10.83;;;5.30;;
4290;SDS011;2159;50.906;7.152;2023-06-26T08:21:35;10.30;;;4.67;;
4290;SDS011;2159;50.906;7.152;2023-06-26T08:24:02;12.77;;;4.50;;
4290;SDS011;2159;50.906;7.152;2023-06-26T08:26:30;8.40;;;4.90;;
4290;SDS011;2159;50.906;7.152;2023-06-26T08:28:57;10.40;;;5.07;;
4290;SDS011;2159;50.906;7.152;2023-06-26T08:31:25;13.47;;;4.17;;
4290;SDS011;2159;50.906;7.152;2023-06-26T08:33:52;6.77;;;4.23;;
4290;SDS011;2159;50.906;7.152;2023-06-26T08:36:21;5.63;;;4.10;;
4290;SDS011;2159;50.906;7.152;2023-06-26T08:38:49;7.63;;;4.57;;
4290;SDS011;2159;50.906;7.152;2023-06-26T08:41:16;7.27;;;4.50;;
4290;SDS011;2159;50.906;7.152;2023-06-26T08:43:43;8.07;;;4.40;;
4290;SDS011;2159;50.906;7.152;2023-06-26T08:46:11;7.70;;;4.93;;
4290;SDS011;2159;50.906;7.152;2023-06-26T08:48:39;7.43;;;4.17;;
4290;SDS011;2159;50.906;7.152;2023-06-26T08:51:09;12.30;;;4.83;;
4290;SDS011;2159;50.906;7.152;2023-06-26T08:53:39;11.07;;;4.90;;
4290;SDS011;2159;50.906;7.152;2023-06-26T08:56:07;7.80;;;4.23;;
4290;SDS011;2159;50.906;7.152;2023-06-26T08:58:35;7.90;;;4.87;;
4290;SDS011;2159;50.906;7.152;2023-06-26T09:01:06;9.10;;;5.73;;
4290;SDS011;2159;50.906;7.152;2023-06-26T09:03:34;8.17;;;5.73;;
4290;SDS011;2159;50.906;7.152;2023-06-26T09:06:02;13.27;;;5.87;;
4290;SDS011;2159;50.906;7.152;2023-06-26T09:08:30;8.83;;;5.10;;
4290;SDS011;2159;50.906;7.152;2023-06-26T09:10:58;6.57;;;3.87;;
4290;SDS011;2159;50.906;7.152;2023-06-26T09:13:27;7.50;;;5.60;;
4290;SDS011;2159;50.906;7.152;2023-06-26T09:15:55;7.83;;;5.30;;
4290;SDS011;2159;50.906;7.152;2023-06-26T09:18:23;6.00;;;5.07;;
4290;SDS011;2159;50.906;7.152;2023-06-26T09:20:50;5.87;;;4.47;;
4290;SDS011;2159;50.906;7.152;2023-06-26T09:23:20;7.87;;;4.67;;
4290;SDS011;2159;50.906;7.152;2023-06-26T09:25:49;4.90;;;4.40;;
4290;SDS011;2159;50.906;7.152;2023-06-26T09:28:19;5.73;;;4.10;;
4290;SDS011;2159;50.906;7.152;2023-06-26T09:30:47;5.50;;;3.73;;
4290;SDS011;2159;50.906;7.152;2023-06-26T09:33:16;6.40;;;4.20;;
4290;SDS011;2159;50.906;7.152;2023-06-26T09:35:45;6.53;;;3.63;;
4290;SDS011;2159;50.906;7.152;2023-06-26T09:38:13;6.20;;;3.83;;
4290;SDS011;2159;50.906;7.152;2023-06-26T09:40:41;7.97;;;4.30;;
4290;SDS011;2159;50.906;7.152;2023-06-26T09:43:09;9.67;;;4.13;;
4290;SDS011;2159;50.906;7.152;2023-06-26T09:45:39;4.97;;;3.80;;
4290;SDS011;2159;50.906;7.152;2023-06-26T09:48:06;5.87;;;3.70;;
4290;SDS011;2159;50.906;7.152;2023-06-26T09:50:35;8.17;;;3.90;;
4290;SDS011;2159;50.906;7.152;2023-06-26T09:53:06;6.47;;;3.87;;
4290;SDS011;2159;50.906;7.152;2023-06-26T09:55:34;6.97;;;4.03;;
4290;SDS011;2159;50.906;7.152;2023-06-26T09:58:02;5.00;;;4.00;;
4290;SDS011;2159;50.906;7.152;2023-06-26T10:00:30;9.63;;;3.97;;
4290;SDS011;2159;50.906;7.152;2023-06-26T10:02:59;8.90;;;3.50;;
4290;SDS011;2159;50.906;7.152;2023-06-26T10:05:27;10.77;;;3.80;;
4290;SDS011;2159;50.906;7.152;2023-06-26T10:07:54;7.70;;;4.20;;
4290;SDS011;2159;50.906;7.152;2023-06-26T10:10:22;6.70;;;3.60;;
4290;SDS011;2159;50.906;7.152;2023-06-26T10:12:51;6.80;;;4.00;;
4290;SDS011;2159;50.906;7.152;2023-06-26T10:15:21;7.93;;;4.00;;
4290;SDS011;2159;50.906;7.152;2023-06-26T10:17:50;4.83;;;3.63;;
4290;SDS011;2159;50.906;7.152;2023-06-26T10:20:20;7.00;;;3.93;;
4290;SDS011;2159;50.906;7.152;2023-06-26T10:22:48;8.07;;;3.90;;
4290;SDS011;2159;50.906;7.152;2023-06-26T10:25:16;7.87;;;4.00;;
4290;SDS011;2159;50.906;7.152;2023-06-26T10:27:45;5.40;;;3.30;;
4290;SDS011;2159;50.906;7.152;2023-06-26T10:30:16;7.87;;;3.30;;
4290;SDS011;2159;50.906;7.152;2023-06-26T10:32:44;8.37;;;3.33;;
4290;SDS011;2159;50.906;7.152;2023-06-26T10:35:13;6.50;;;3.47;;
4290;SDS011;2159;50.906;7.152;2023-06-26T10:37:43;3.23;;;2.73;;
4290;SDS011;2159;50.906;7.152;2023-06-26T10:40:11;8.80;;;3.23;;
4290;SDS011;2159;50.906;7.152;2023-06-26T10:42:39;6.57;;;3.23;;
4290;SDS011;2159;50.906;7.152;2023-06-26T10:45:11;6.97;;;3.47;;
4290;SDS011;2159;50.906;7.152;2023-06-26T10:47:39;10.10;;;3.07;;
4290;SDS011;2159;50.906;7.152;2023-06-26T10:50:20;4.03;;;2.83;;
4290;SDS011;2159;50.906;7.152;2023-06-26T10:55:33;12.47;;;3.63;;
4290;SDS011;2159;50.906;7.152;2023-06-26T10:58:01;5.23;;;3.27;;
4290;SDS011;2159;50.906;7.152;2023-06-26T11:00:29;4.03;;;2.83;;
4290;SDS011;2159;50.906;7.152;2023-06-26T11:02:56;8.80;;;2.90;;
4290;SDS011;2159;50.906;7.152;2023-06-26T11:05:24;4.20;;;2.60;;
4290;SDS011;2159;50.906;7.152;2023-06-26T11:08:02;3.27;;;2.50;;
4290;SDS011;2159;50.906;7.152;2023-06-26T11:10:39;3.70;;;2.93;;
4290;SDS011;2159;50.906;7.152;2023-06-26T11:13:15;3.97;;;2.80;;
4290;SDS011;2159;50.906;7.152;2023-06-26T11:15:43;3.00;;;2.60;;
4290;SDS011;2159;50.906;7.152;2023-06-26T11:18:12;4.00;;;2.87;;
4290;SDS011;2159;50.906;7.152;2023-06-26T11:20:39;6.50;;;2.63;;
4290;SDS011;2159;50.906;7.152;2023-06-26T11:23:07;5.13;;;2.70;;
4290;SDS011;2159;50.906;7.152;2023-06-26T11:25:35;2.40;;;2.30;;
4290;SDS011;2159;50.906;7.152;2023-06-26T11:28:04;6.40;;;2.70;;
4290;SDS011;2159;50.906;7.152;2023-06-26T11:30:31;5.73;;;2.70;;
4290;SDS011;2159;50.906;7.152;2023-06-26T11:33:02;4.67;;;2.67;;
4290;SDS011;2159;50.906;7.152;2023-06-26T11:35:30;4.17;;;2.73;;
4290;SDS011;2159;50.906;7.152;2023-06-26T11:37:58;3.60;;;2.90;;
4290;SDS011;2159;50.906;7.152;2023-06-26T11:40:31;4.43;;;2.40;;
4290;SDS011;2159;50.906;7.152;2023-06-26T11:42:59;6.00;;;2.37;;
4290;SDS011;2159;50.906;7.152;2023-06-26T11:45:29;4.23;;;2.50;;
4290;SDS011;2159;50.906;7.152;2023-06-26T11:47:56;4.37;;;2.27;;
4290;SDS011;2159;50.906;7.152;2023-06-26T11:50:24;5.90;;;2.40;;
4290;SDS011;2159;50.906;7.152;2023-06-26T11:52:55;7.27;;;2.60;;
4290;SDS011;2159;50.906;7.152;2023-06-26T11:55:23;7.07;;;2.70;;
4290;SDS011;2159;50.906;7.152;2023-06-26T11:57:52;8.00;;;3.07;;
4290;SDS011;2159;50.906;7.152;2023-06-26T12:00:21;4.07;;;2.60;;
4290;SDS011;2159;50.906;7.152;2023-06-26T12:02:50;6.93;;;2.50;;
4290;SDS011;2159;50.906;7.152;2023-06-26T12:05:18;7.50;;;2.33;;
4290;SDS011;2159;50.906;7.152;2023-06-26T12:07:46;6.77;;;2.53;;
4290;SDS011;2159;50.906;7.152;2023-06-26T12:10:14;3.00;;;2.70;;
4290;SDS011;2159;50.906;7.152;2023-06-26T12:12:42;2.33;;;2.13;;
4290;SDS011;2159;50.906;7.152;2023-06-26T12:15:12;7.20;;;2.53;;
4290;SDS011;2159;50.906;7.152;2023-06-26T12:17:40;3.70;;;2.40;;
4290;SDS011;2159;50.906;7.152;2023-06-26T12:20:18;4.70;;;2.50;;
4290;SDS011;2159;50.906;7.152;2023-06-26T12:22:46;4.83;;;2.80;;
4290;SDS011;2159;50.906;7.152;2023-06-26T12:25:14;4.20;;;2.63;;
4290;SDS011;2159;50.906;7.152;2023-06-26T12:27:44;7.20;;;2.60;;
4290;SDS011;2159;50.906;7.152;2023-06-26T12:30:12;4.50;;;2.57;;
4290;SDS011;2159;50.906;7.152;2023-06-26T12:32:40;2.30;;;2.10;;
4290;SDS011;2159;50.906;7.152;2023-06-26T12:35:07;3.40;;;2.33;;
4290;SDS011;2159;50.906;7.152;2023-06-26T12:37:37;4.03;;;2.40;;
4290;SDS011;2159;50.906;7.152;2023-06-26T12:40:15;5.50;;;2.10;;
4290;SDS011;2159;50.906;7.152;2023-06-26T12:42:43;3.17;;;1.80;;
4290;SDS011;2159;50.906;7.152;2023-06-26T12:45:11;4.83;;;2.27;;
4290;SDS011;2159;50.906;7.152;2023-06-26T12:47:52;4.33;;;2.30;;
4290;SDS011;2159;50.906;7.152;2023-06-26T12:50:20;5.13;;;2.40;;
4290;SDS011;2159;50.906;7.152;2023-06-26T12:52:48;2.63;;;2.17;;
4290;SDS011;2159;50.906;7.152;2023-06-26T12:55:16;4.63;;;2.50;;
4290;SDS011;2159;50.906;7.152;2023-06-26T12:57:43;4.90;;;2.30;;
4290;SDS011;2159;50.906;7.152;2023-06-26T13:00:11;4.30;;;2.07;;
4290;SDS011;2159;50.906;7.152;2023-06-26T13:02:39;6.83;;;2.60;;
4290;SDS011;2159;50.906;7.152;2023-06-26T13:05:07;2.60;;;2.20;;
4290;SDS011;2159;50.906;7.152;2023-06-26T13:07:35;7.03;;;2.83;;
4290;SDS011;2159;50.906;7.152;2023-06-26T13:10:04;3.73;;;2.00;;
4290;SDS011;2159;50.906;7.152;2023-06-26T13:12:32;6.10;;;2.27;;
4290;SDS011;2159;50.906;7.152;2023-06-26T13:14:59;8.83;;;2.50;;
4290;SDS011;2159;50.906;7.152;2023-06-26T13:17:27;5.37;;;2.23;;
4290;SDS011;2159;50.906;7.152;2023-06-26T13:19:54;6.67;;;1.80;;
4290;SDS011;2159;50.906;7.152;2023-06-26T13:22:22;2.57;;;1.90;;
4290;SDS011;2159;50.906;7.152;2023-06-26T13:24:49;9.60;;;1.70;;
4290;SDS011;2159;50.906;7.152;2023-06-26T13:27:18;4.80;;;2.00;;
4290;SDS011;2159;50.906;7.152;2023-06-26T13:29:46;6.27;;;2.00;;
4290;SDS011;2159;50.906;7.152;2023-06-26T13:32:13;3.73;;;2.20;;
4290;SDS011;2159;50.906;7.152;2023-06-26T13:34:41;8.43;;;1.90;;
4290;SDS011;2159;50.906;7.152;2023-06-26T13:37:09;3.73;;;1.87;;
4290;SDS011;2159;50.906;7.152;2023-06-26T13:39:37;6.97;;;1.80;;
4290;SDS011;2159;50.906;7.152;2023-06-26T13:42:05;7.13;;;1.83;;
4290;SDS011;2159;50.906;7.152;2023-06-26T13:44:34;10.23;;;2.00;;
4290;SDS011;2159;50.906;7.152;2023-06-26T13:47:17;13.00;;;2.00;;
4290;SDS011;2159;50.906;7.152;2023-06-26T13:49:44;3.63;;;1.70;;
4290;SDS011;2159;50.906;7.152;2023-06-26T13:52:12;7.83;;;1.90;;
4290;SDS011;2159;50.906;7.152;2023-06-26T13:54:39;10.03;;;2.13;;
4290;SDS011;2159;50.906;7.152;2023-06-26T13:57:08;6.37;;;2.10;;
4290;SDS011;2159;50.906;7.152;2023-06-26T13:59:37;9.80;;;2.03;;
4290;SDS011;2159;50.906;7.152;2023-06-26T14:02:06;2.47;;;1.50;;
4290;SDS011;2159;50.906;7.152;2023-06-26T14:04:34;5.23;;;1.53;;
4290;SDS011;2159;50.906;7.152;2023-06-26T14:07:02;3.63;;;1.60;;
4290;SDS011;2159;50.906;7.152;2023-06-26T14:09:30;6.27;;;1.70;;
4290;SDS011;2159;50.906;7.152;2023-06-26T14:11:57;7.63;;;2.03;;
4290;SDS011;2159;50.906;7.152;2023-06-26T14:14:25;6.67;;;2.10;;
4290;SDS011;2159;50.906;7.152;2023-06-26T14:16:54;8.03;;;1.80;;
4290;SDS011;2159;50.906;7.152;2023-06-26T14:19:21;4.37;;;1.60;;
4290;SDS011;2159;50.906;7.152;2023-06-26T14:21:49;4.47;;;1.67;;
4290;SDS011;2159;50.906;7.152;2023-06-26T14:24:16;8.20;;;1.80;;
4290;SDS011;2159;50.906;7.152;2023-06-26T14:26:43;3.23;;;1.50;;
4290;SDS011;2159;50.906;7.152;2023-06-26T14:29:11;8.43;;;1.70;;
4290;SDS011;2159;50.906;7.152;2023-06-26T14:31:39;11.80;;;1.70;;
4290;SDS011;2159;50.906;7.152;2023-06-26T14:34:07;4.50;;;1.80;;
4290;SDS011;2159;50.906;7.152;2023-06-26T14:36:35;3.83;;;1.90;;
4290;SDS011;2159;50.906;7.152;2023-06-26T14:39:03;5.63;;;1.57;;
4290;SDS011;2159;50.906;7.152;2023-06-26T14:41:31;3.07;;;1.80;;
4290;SDS011;2159;50.906;7.152;2023-06-26T14:43:59;2.77;;;1.60;;
4290;SDS011;2159;50.906;7.152;2023-06-26T14:46:27;5.60;;;1.50;;
4290;SDS011;2159;50.906;7.152;2023-06-26T14:48:55;3.67;;;1.60;;
4290;SDS011;2159;50.906;7.152;2023-06-26T14:51:24;1.57;;;1.47;;
4290;SDS011;2159;50.906;7.152;2023-06-26T14:53:52;4.97;;;1.50;;
4290;SDS011;2159;50.906;7.152;2023-06-26T14:56:19;4.33;;;1.70;;
4290;SDS011;2159;50.906;7.152;2023-06-26T14:58:47;3.50;;;1.60;;
4290;SDS011;2159;50.906;7.152;2023-06-26T15:01:14;9.03;;;1.60;;
4290;SDS011;2159;50.906;7.152;2023-06-26T15:03:43;6.00;;;1.83;;
4290;SDS011;2159;50.906;7.152;2023-06-26T15:06:10;6.37;;;1.77;;
4290;SDS011;2159;50.906;7.152;2023-06-26T15:08:39;6.07;;;1.60;;
4290;SDS011;2159;50.906;7.152;2023-06-26T15:11:06;2.83;;;1.70;;
4290;SDS011;2159;50.906;7.152;2023-06-26T15:13:34;5.43;;;1.80;;
4290;SDS011;2159;50.906;7.152;2023-06-26T15:16:01;5.33;;;1.70;;
4290;SDS011;2159;50.906;7.152;2023-06-26T15:18:29;7.40;;;1.80;;
4290;SDS011;2159;50.906;7.152;2023-06-26T15:20:56;7.70;;;1.80;;
4290;SDS011;2159;50.906;7.152;2023-06-26T15:23:23;7.63;;;1.87;;
4290;SDS011;2159;50.906;7.152;2023-06-26T15:25:54;5.00;;;1.67;;